sensor_id;sensor_type;location;lat;lon;timestamp;temperature;humidity
16273;DHT22;8244;50.044;9.006;2023-05-07T00:00:58;15.80;99.90
16273;DHT22;8244;50.044;9.006;2023-05-07T00:06:02;15.80;99.90
16273;DHT22;8244;50.044;9.006;2023-05-07T00:11:03;15.80;99.90
16273;DHT22;8244;50.044;9.006;2023-05-07T00:16:05;15.70;99.90
16273;DHT22;8244;50.044;9.006;2023-05-07T00:21:08;15.70;99.90
16273;DHT22;8244;50.044;9.006;2023-05-07T00:26:10;15.60;99.90
16273;DHT22;8244;50.044;9.006;2023-05-07T00:31:12;15.60;99.90
16273;DHT22;8244;50.044;9.006;2023-05-07T00:36:15;15.50;99.90
16273;DHT22;8244;50.044;9.006;2023-05-07T00:41:16;15.50;99.90
16273;DHT22;8244;50.044;9.006;2023-05-07T00:46:20;15.50;99.90
16273;DHT22;8244;50.044;9.006;2023-05-07T00:51:25;15.50;99.90
16273;DHT22;8244;50.044;9.006;2023-05-07T00:56:28;15.50;99.90
16273;DHT22;8244;50.044;9.006;2023-05-07T01:01:31;15.50;99.90
16273;DHT22;8244;50.044;9.006;2023-05-07T01:06:34;15.50;99.90
16273;DHT22;8244;50.044;9.006;2023-05-07T01:11:36;15.40;99.90
16273;DHT22;8244;50.044;9.006;2023-05-07T01:16:37;15.40;99.90
16273;DHT22;8244;50.044;9.006;2023-05-07T01:21:46;15.40;99.90
16273;DHT22;8244;50.044;9.006;2023-05-07T01:26:49;15.30;99.90
16273;DHT22;8244;50.044;9.006;2023-05-07T01:31:52;15.20;99.90
16273;DHT22;8244;50.044;9.006;2023-05-07T01:36:54;15.30;99.90
16273;DHT22;8244;50.044;9.006;2023-05-07T01:41:59;15.20;99.90
16273;DHT22;8244;50.044;9.006;2023-05-07T01:47:02;15.20;99.90
16273;DHT22;8244;50.044;9.006;2023-05-07T01:52:04;15.20;99.90
16273;DHT22;8244;50.044;9.006;2023-05-07T01:57:07;15.10;99.90
16273;DHT22;8244;50.044;9.006;2023-05-07T02:02:09;15.10;99.90
16273;DHT22;8244;50.044;9.006;2023-05-07T02:07:10;15.00;99.90
16273;DHT22;8244;50.044;9.006;2023-05-07T02:12:13;15.00;99.90
16273;DHT22;8244;50.044;9.006;2023-05-07T02:17:15;15.00;99.90
16273;DHT22;8244;50.044;9.006;2023-05-07T02:22:16;15.00;99.90
16273;DHT22;8244;50.044;9.006;2023-05-07T02:27:19;14.90;99.90
16273;DHT22;8244;50.044;9.006;2023-05-07T02:32:21;14.90;99.90
16273;DHT22;8244;50.044;9.006;2023-05-07T02:37:23;14.80;99.90
16273;DHT22;8244;50.044;9.006;2023-05-07T02:42:26;14.70;99.90
16273;DHT22;8244;50.044;9.006;2023-05-07T02:47:28;14.70;99.90
16273;DHT22;8244;50.044;9.006;2023-05-07T02:52:29;14.60;99.90
16273;DHT22;8244;50.044;9.006;2023-05-07T02:57:32;14.60;99.90
16273;DHT22;8244;50.044;9.006;2023-05-07T03:02:34;14.60;99.90
16273;DHT22;8244;50.044;9.006;2023-05-07T03:07:36;14.50;99.90
16273;DHT22;8244;50.044;9.006;2023-05-07T03:12:39;14.50;99.90
16273;DHT22;8244;50.044;9.006;2023-05-07T03:17:41;14.50;99.90
16273;DHT22;8244;50.044;9.006;2023-05-07T03:22:43;14.40;99.90
16273;DHT22;8244;50.044;9.006;2023-05-07T03:27:46;14.40;99.90
16273;DHT22;8244;50.044;9.006;2023-05-07T03:32:47;14.40;99.90
16273;DHT22;8244;50.044;9.006;2023-05-07T03:37:49;14.40;99.90
16273;DHT22;8244;50.044;9.006;2023-05-07T03:42:52;14.40;99.90
16273;DHT22;8244;50.044;9.006;2023-05-07T03:47:54;14.40;99.90
16273;DHT22;8244;50.044;9.006;2023-05-07T03:52:55;14.30;99.90
16273;DHT22;8244;50.044;9.006;2023-05-07T03:57:58;14.30;99.90
16273;DHT22;8244;50.044;9.006;2023-05-07T04:03:00;14.20;99.90
16273;DHT22;8244;50.044;9.006;2023-05-07T04:08:02;14.20;99.90
16273;DHT22;8244;50.044;9.006;2023-05-07T04:13:05;14.20;99.90
16273;DHT22;8244;50.044;9.006;2023-05-07T04:18:06;14.20;99.90
16273;DHT22;8244;50.044;9.006;2023-05-07T04:23:08;14.30;99.90
16273;DHT22;8244;50.044;9.006;2023-05-07T04:28:11;14.30;99.90
16273;DHT22;8244;50.044;9.006;2023-05-07T04:33:14;14.40;99.90
16273;DHT22;8244;50.044;9.006;2023-05-07T04:38:17;14.50;99.90
16273;DHT22;8244;50.044;9.006;2023-05-07T04:43:20;14.70;99.90
16273;DHT22;8244;50.044;9.006;2023-05-07T04:48:21;14.80;99.90
16273;DHT22;8244;50.044;9.006;2023-05-07T04:53:23;14.90;99.90
16273;DHT22;8244;50.044;9.006;2023-05-07T04:58:26;15.00;99.90
16273;DHT22;8244;50.044;9.006;2023-05-07T05:03:31;15.10;99.90
16273;DHT22;8244;50.044;9.006;2023-05-07T05:08:33;15.20;99.90
16273;DHT22;8244;50.044;9.006;2023-05-07T05:13:36;15.30;99.90
16273;DHT22;8244;50.044;9.006;2023-05-07T05:18:38;15.40;99.90
16273;DHT22;8244;50.044;9.006;2023-05-07T05:23:40;15.50;99.90
16273;DHT22;8244;50.044;9.006;2023-05-07T05:28:43;15.60;99.90
16273;DHT22;8244;50.044;9.006;2023-05-07T05:33:45;15.70;99.90
16273;DHT22;8244;50.044;9.006;2023-05-07T05:38:46;15.80;99.90
16273;DHT22;8244;50.044;9.006;2023-05-07T05:43:49;16.00;99.90
16273;DHT22;8244;50.044;9.006;2023-05-07T05:48:51;16.20;99.90
16273;DHT22;8244;50.044;9.006;2023-05-07T05:53:53;16.30;99.90
16273;DHT22;8244;50.044;9.006;2023-05-07T05:58:56;16.40;99.90
16273;DHT22;8244;50.044;9.006;2023-05-07T06:03:57;16.50;99.90
16273;DHT22;8244;50.044;9.006;2023-05-07T06:08:59;16.50;99.90
16273;DHT22;8244;50.044;9.006;2023-05-07T06:14:02;16.60;99.90
16273;DHT22;8244;50.044;9.006;2023-05-07T06:19:04;16.70;99.90
16273;DHT22;8244;50.044;9.006;2023-05-07T06:24:06;16.80;99.90
16273;DHT22;8244;50.044;9.006;2023-05-07T06:29:09;16.80;99.90
16273;DHT22;8244;50.044;9.006;2023-05-07T06:34:11;16.90;99.90
16273;DHT22;8244;50.044;9.006;2023-05-07T06:39:14;17.00;99.90
16273;DHT22;8244;50.044;9.006;2023-05-07T06:44:17;17.20;99.90
16273;DHT22;8244;50.044;9.006;2023-05-07T06:49:19;17.50;99.90
16273;DHT22;8244;50.044;9.006;2023-05-07T06:54:21;17.80;99.90
16273;DHT22;8244;50.044;9.006;2023-05-07T06:59:24;17.90;99.90
16273;DHT22;8244;50.044;9.006;2023-05-07T07:04:26;18.00;99.90
16273;DHT22;8244;50.044;9.006;2023-05-07T07:09:28;18.10;99.90
16273;DHT22;8244;50.044;9.006;2023-05-07T07:14:31;18.40;99.90
16273;DHT22;8244;50.044;9.006;2023-05-07T07:19:33;18.70;99.90
16273;DHT22;8244;50.044;9.006;2023-05-07T07:24:35;18.70;99.90
16273;DHT22;8244;50.044;9.006;2023-05-07T07:29:38;18.80;99.90
16273;DHT22;8244;50.044;9.006;2023-05-07T07:34:40;19.00;99.90
16273;DHT22;8244;50.044;9.006;2023-05-07T07:39:41;19.30;99.90
16273;DHT22;8244;50.044;9.006;2023-05-07T07:44:44;19.60;99.90
16273;DHT22;8244;50.044;9.006;2023-05-07T07:49:46;19.90;99.90
16273;DHT22;8244;50.044;9.006;2023-05-07T07:54:48;20.10;99.90
16273;DHT22;8244;50.044;9.006;2023-05-07T07:59:51;20.30;99.90
16273;DHT22;8244;50.044;9.006;2023-05-07T08:04:52;20.60;99.90
16273;DHT22;8244;50.044;9.006;2023-05-07T08:09:54;20.80;99.90
16273;DHT22;8244;50.044;9.006;2023-05-07T08:14:57;20.80;99.90
16273;DHT22;8244;50.044;9.006;2023-05-07T08:19:58;21.10;99.90
16273;DHT22;8244;50.044;9.006;2023-05-07T08:25:00;21.50;99.90
16273;DHT22;8244;50.044;9.006;2023-05-07T08:30:04;22.00;99.90
16273;DHT22;8244;50.044;9.006;2023-05-07T08:35:07;21.90;99.90
16273;DHT22;8244;50.044;9.006;2023-05-07T08:40:09;22.20;99.90
16273;DHT22;8244;50.044;9.006;2023-05-07T08:45:13;22.50;98.70
16273;DHT22;8244;50.044;9.006;2023-05-07T08:50:15;22.80;99.50
16273;DHT22;8244;50.044;9.006;2023-05-07T08:55:17;23.10;98.60
16273;DHT22;8244;50.044;9.006;2023-05-07T09:00:20;23.30;96.30
16273;DHT22;8244;50.044;9.006;2023-05-07T09:05:22;23.60;95.00
16273;DHT22;8244;50.044;9.006;2023-05-07T09:10:23;23.90;94.70
16273;DHT22;8244;50.044;9.006;2023-05-07T09:15:28;24.10;94.00
16273;DHT22;8244;50.044;9.006;2023-05-07T09:20:30;24.50;93.00
16273;DHT22;8244;50.044;9.006;2023-05-07T09:25:33;24.50;92.10
16273;DHT22;8244;50.044;9.006;2023-05-07T09:30:37;24.90;91.60
16273;DHT22;8244;50.044;9.006;2023-05-07T09:35:39;25.20;91.30
16273;DHT22;8244;50.044;9.006;2023-05-07T09:40:41;25.20;90.70
16273;DHT22;8244;50.044;9.006;2023-05-07T09:45:46;25.80;88.30
16273;DHT22;8244;50.044;9.006;2023-05-07T09:50:55;26.20;87.60
16273;DHT22;8244;50.044;9.006;2023-05-07T09:55:59;26.40;85.10
16273;DHT22;8244;50.044;9.006;2023-05-07T10:01:02;26.80;85.80
16273;DHT22;8244;50.044;9.006;2023-05-07T10:06:07;27.30;84.90
16273;DHT22;8244;50.044;9.006;2023-05-07T10:11:09;28.10;82.40
16273;DHT22;8244;50.044;9.006;2023-05-07T10:16:14;28.70;79.70
16273;DHT22;8244;50.044;9.006;2023-05-07T10:21:17;29.30;78.90
16273;DHT22;8244;50.044;9.006;2023-05-07T10:26:20;29.80;75.30
16273;DHT22;8244;50.044;9.006;2023-05-07T10:31:47;29.90;74.80
16273;DHT22;8244;50.044;9.006;2023-05-07T10:36:51;29.50;72.00
16273;DHT22;8244;50.044;9.006;2023-05-07T10:41:53;29.60;73.40
16273;DHT22;8244;50.044;9.006;2023-05-07T10:47:07;30.10;73.00
16273;DHT22;8244;50.044;9.006;2023-05-07T10:52:14;29.90;72.30
16273;DHT22;8244;50.044;9.006;2023-05-07T10:57:35;29.70;74.30
16273;DHT22;8244;50.044;9.006;2023-05-07T11:03:06;29.90;69.90
16273;DHT22;8244;50.044;9.006;2023-05-07T11:08:09;29.60;70.40
16273;DHT22;8244;50.044;9.006;2023-05-07T11:13:11;29.80;71.40
16273;DHT22;8244;50.044;9.006;2023-05-07T11:18:15;30.30;72.10
16273;DHT22;8244;50.044;9.006;2023-05-07T11:28:52;30.50;65.90
16273;DHT22;8244;50.044;9.006;2023-05-07T11:33:56;30.80;72.40
16273;DHT22;8244;50.044;9.006;2023-05-07T11:38:58;31.40;67.30
16273;DHT22;8244;50.044;9.006;2023-05-07T11:44:00;32.00;63.30
16273;DHT22;8244;50.044;9.006;2023-05-07T11:49:03;32.40;63.60
16273;DHT22;8244;50.044;9.006;2023-05-07T11:54:05;32.30;63.80
16273;DHT22;8244;50.044;9.006;2023-05-07T11:59:09;32.20;65.20
16273;DHT22;8244;50.044;9.006;2023-05-07T12:04:11;32.40;64.90
16273;DHT22;8244;50.044;9.006;2023-05-07T12:09:13;33.20;61.60
16273;DHT22;8244;50.044;9.006;2023-05-07T12:14:15;33.70;59.50
16273;DHT22;8244;50.044;9.006;2023-05-07T12:19:18;34.20;62.00
16273;DHT22;8244;50.044;9.006;2023-05-07T12:24:20;34.70;57.90
16273;DHT22;8244;50.044;9.006;2023-05-07T12:29:22;34.10;56.60
16273;DHT22;8244;50.044;9.006;2023-05-07T12:34:25;33.90;57.90
16273;DHT22;8244;50.044;9.006;2023-05-07T12:39:27;33.60;57.80
16273;DHT22;8244;50.044;9.006;2023-05-07T12:44:30;33.10;57.80
16273;DHT22;8244;50.044;9.006;2023-05-07T12:49:34;32.90;59.00
16273;DHT22;8244;50.044;9.006;2023-05-07T12:54:38;32.60;57.70
16273;DHT22;8244;50.044;9.006;2023-05-07T12:59:42;32.70;57.50
16273;DHT22;8244;50.044;9.006;2023-05-07T13:04:45;32.40;58.70
16273;DHT22;8244;50.044;9.006;2023-05-07T13:09:48;32.00;57.60
16273;DHT22;8244;50.044;9.006;2023-05-07T13:14:49;31.30;59.80
16273;DHT22;8244;50.044;9.006;2023-05-07T13:19:52;31.20;59.60
16273;DHT22;8244;50.044;9.006;2023-05-07T13:24:54;31.40;59.20
16273;DHT22;8244;50.044;9.006;2023-05-07T13:29:56;31.50;59.00
16273;DHT22;8244;50.044;9.006;2023-05-07T13:34:59;31.30;58.40
16273;DHT22;8244;50.044;9.006;2023-05-07T13:40:01;31.00;63.80
16273;DHT22;8244;50.044;9.006;2023-05-07T13:45:04;31.10;62.50
16273;DHT22;8244;50.044;9.006;2023-05-07T13:50:09;31.20;61.10
16273;DHT22;8244;50.044;9.006;2023-05-07T13:55:11;30.90;62.90
16273;DHT22;8244;50.044;9.006;2023-05-07T14:00:14;30.70;63.70
16273;DHT22;8244;50.044;9.006;2023-05-07T14:05:18;30.50;64.60
16273;DHT22;8244;50.044;9.006;2023-05-07T14:10:20;30.50;63.70
16273;DHT22;8244;50.044;9.006;2023-05-07T14:15:21;30.40;63.20
16273;DHT22;8244;50.044;9.006;2023-05-07T14:20:24;30.40;66.00
16273;DHT22;8244;50.044;9.006;2023-05-07T14:25:26;30.60;64.60
16273;DHT22;8244;50.044;9.006;2023-05-07T14:30:28;30.50;62.80
16273;DHT22;8244;50.044;9.006;2023-05-07T14:35:31;30.70;65.20
16273;DHT22;8244;50.044;9.006;2023-05-07T14:40:33;30.80;64.00
16273;DHT22;8244;50.044;9.006;2023-05-07T14:45:34;30.90;64.60
16273;DHT22;8244;50.044;9.006;2023-05-07T14:50:37;31.00;63.70
16273;DHT22;8244;50.044;9.006;2023-05-07T14:55:39;30.90;59.80
16273;DHT22;8244;50.044;9.006;2023-05-07T15:00:41;31.20;63.70
16273;DHT22;8244;50.044;9.006;2023-05-07T15:05:45;31.00;58.80
16273;DHT22;8244;50.044;9.006;2023-05-07T15:10:47;30.50;61.10
16273;DHT22;8244;50.044;9.006;2023-05-07T15:15:55;30.20;62.40
16273;DHT22;8244;50.044;9.006;2023-05-07T15:20:58;29.60;61.80
16273;DHT22;8244;50.044;9.006;2023-05-07T15:26:00;29.20;62.80
16273;DHT22;8244;50.044;9.006;2023-05-07T15:31:02;28.80;65.30
16273;DHT22;8244;50.044;9.006;2023-05-07T15:36:07;28.80;64.20
16273;DHT22;8244;50.044;9.006;2023-05-07T15:41:09;28.30;65.40
16273;DHT22;8244;50.044;9.006;2023-05-07T15:46:11;27.90;65.30
16273;DHT22;8244;50.044;9.006;2023-05-07T15:51:14;27.50;66.20
16273;DHT22;8244;50.044;9.006;2023-05-07T15:56:15;27.20;67.60
16273;DHT22;8244;50.044;9.006;2023-05-07T16:01:17;27.00;68.20
16273;DHT22;8244;50.044;9.006;2023-05-07T16:06:20;26.60;69.40
16273;DHT22;8244;50.044;9.006;2023-05-07T16:11:22;26.30;70.40
16273;DHT22;8244;50.044;9.006;2023-05-07T16:16:24;26.10;70.90
16273;DHT22;8244;50.044;9.006;2023-05-07T16:21:30;25.80;71.20
16273;DHT22;8244;50.044;9.006;2023-05-07T16:26:32;25.60;72.50
16273;DHT22;8244;50.044;9.006;2023-05-07T16:31:34;25.30;73.10
16273;DHT22;8244;50.044;9.006;2023-05-07T16:36:37;25.10;73.70
16273;DHT22;8244;50.044;9.006;2023-05-07T16:41:39;24.90;74.90
16273;DHT22;8244;50.044;9.006;2023-05-07T16:46:41;24.70;74.90
16273;DHT22;8244;50.044;9.006;2023-05-07T16:51:44;24.50;75.60
16273;DHT22;8244;50.044;9.006;2023-05-07T16:56:46;24.40;75.80
16273;DHT22;8244;50.044;9.006;2023-05-07T17:01:48;24.40;75.90
16273;DHT22;8244;50.044;9.006;2023-05-07T17:06:53;24.20;76.70
16273;DHT22;8244;50.044;9.006;2023-05-07T17:11:54;24.20;76.70
16273;DHT22;8244;50.044;9.006;2023-05-07T17:16:56;24.10;78.20
16273;DHT22;8244;50.044;9.006;2023-05-07T17:21:59;23.90;85.20
16273;DHT22;8244;50.044;9.006;2023-05-07T17:27:01;23.30;90.00
16273;DHT22;8244;50.044;9.006;2023-05-07T17:32:03;22.60;91.60
16273;DHT22;8244;50.044;9.006;2023-05-07T17:37:06;22.20;92.70
16273;DHT22;8244;50.044;9.006;2023-05-07T17:42:08;21.80;94.10
16273;DHT22;8244;50.044;9.006;2023-05-07T17:47:09;21.50;95.30
16273;DHT22;8244;50.044;9.006;2023-05-07T17:52:13;21.40;96.50
16273;DHT22;8244;50.044;9.006;2023-05-07T17:57:15;21.20;97.80
16273;DHT22;8244;50.044;9.006;2023-05-07T18:02:16;21.10;98.90
16273;DHT22;8244;50.044;9.006;2023-05-07T18:07:20;21.00;99.50
16273;DHT22;8244;50.044;9.006;2023-05-07T18:12:21;20.80;99.80
16273;DHT22;8244;50.044;9.006;2023-05-07T18:17:23;20.70;99.90
16273;DHT22;8244;50.044;9.006;2023-05-07T18:22:27;20.60;99.90
16273;DHT22;8244;50.044;9.006;2023-05-07T18:27:29;20.50;99.90
16273;DHT22;8244;50.044;9.006;2023-05-07T18:32:31;20.30;99.90
16273;DHT22;8244;50.044;9.006;2023-05-07T18:37:34;20.20;99.90
16273;DHT22;8244;50.044;9.006;2023-05-07T18:42:35;20.20;99.90
16273;DHT22;8244;50.044;9.006;2023-05-07T18:47:37;20.10;99.90
16273;DHT22;8244;50.044;9.006;2023-05-07T18:52:40;20.00;99.90
16273;DHT22;8244;50.044;9.006;2023-05-07T18:57:42;19.90;99.90
16273;DHT22;8244;50.044;9.006;2023-05-07T19:02:44;19.80;99.90
16273;DHT22;8244;50.044;9.006;2023-05-07T19:07:47;19.70;99.90
16273;DHT22;8244;50.044;9.006;2023-05-07T19:12:50;19.60;99.90
16273;DHT22;8244;50.044;9.006;2023-05-07T19:17:54;19.40;99.90
16273;DHT22;8244;50.044;9.006;2023-05-07T19:22:57;19.20;99.90
16273;DHT22;8244;50.044;9.006;2023-05-07T19:27:59;19.10;99.90
16273;DHT22;8244;50.044;9.006;2023-05-07T19:33:02;19.00;99.90
16273;DHT22;8244;50.044;9.006;2023-05-07T19:38:05;18.90;99.90
16273;DHT22;8244;50.044;9.006;2023-05-07T19:43:07;18.80;99.90
16273;DHT22;8244;50.044;9.006;2023-05-07T19:48:09;18.70;99.90
16273;DHT22;8244;50.044;9.006;2023-05-07T19:53:12;18.60;99.90
16273;DHT22;8244;50.044;9.006;2023-05-07T19:58:13;18.50;99.90
16273;DHT22;8244;50.044;9.006;2023-05-07T20:03:16;18.40;99.90
16273;DHT22;8244;50.044;9.006;2023-05-07T20:08:19;18.30;99.90
16273;DHT22;8244;50.044;9.006;2023-05-07T20:13:21;18.20;99.90
16273;DHT22;8244;50.044;9.006;2023-05-07T20:18:23;18.20;99.90
16273;DHT22;8244;50.044;9.006;2023-05-07T20:23:26;18.10;99.90
16273;DHT22;8244;50.044;9.006;2023-05-07T20:28:28;18.10;99.90
16273;DHT22;8244;50.044;9.006;2023-05-07T20:33:30;18.00;99.90
16273;DHT22;8244;50.044;9.006;2023-05-07T20:38:33;17.90;99.90
16273;DHT22;8244;50.044;9.006;2023-05-07T20:43:35;17.90;99.90
16273;DHT22;8244;50.044;9.006;2023-05-07T20:48:37;17.80;99.90
16273;DHT22;8244;50.044;9.006;2023-05-07T20:53:40;17.70;99.90
16273;DHT22;8244;50.044;9.006;2023-05-07T20:58:43;17.70;99.90
16273;DHT22;8244;50.044;9.006;2023-05-07T21:03:44;17.60;99.90
16273;DHT22;8244;50.044;9.006;2023-05-07T21:08:47;17.60;99.90
16273;DHT22;8244;50.044;9.006;2023-05-07T21:13:49;17.60;99.90
16273;DHT22;8244;50.044;9.006;2023-05-07T21:18:51;17.50;99.90
16273;DHT22;8244;50.044;9.006;2023-05-07T21:23:55;17.50;99.90
16273;DHT22;8244;50.044;9.006;2023-05-07T21:28:56;17.40;99.90
16273;DHT22;8244;50.044;9.006;2023-05-07T21:33:58;17.40;99.90
16273;DHT22;8244;50.044;9.006;2023-05-07T21:39:01;17.30;99.90
16273;DHT22;8244;50.044;9.006;2023-05-07T21:44:04;17.30;99.90
16273;DHT22;8244;50.044;9.006;2023-05-07T21:49:06;17.20;99.90
16273;DHT22;8244;50.044;9.006;2023-05-07T21:54:10;17.20;99.90
16273;DHT22;8244;50.044;9.006;2023-05-07T21:59:11;17.10;99.90
16273;DHT22;8244;50.044;9.006;2023-05-07T22:04:13;17.00;99.90
16273;DHT22;8244;50.044;9.006;2023-05-07T22:09:16;17.00;99.90
16273;DHT22;8244;50.044;9.006;2023-05-07T22:14:18;16.90;99.90
16273;DHT22;8244;50.044;9.006;2023-05-07T22:19:19;16.90;99.90
16273;DHT22;8244;50.044;9.006;2023-05-07T22:24:23;16.80;99.90
16273;DHT22;8244;50.044;9.006;2023-05-07T22:29:24;16.80;99.90
16273;DHT22;8244;50.044;9.006;2023-05-07T22:34:26;16.70;99.90
16273;DHT22;8244;50.044;9.006;2023-05-07T22:39:29;16.70;99.90
16273;DHT22;8244;50.044;9.006;2023-05-07T22:44:34;16.70;99.90
16273;DHT22;8244;50.044;9.006;2023-05-07T22:49:36;16.70;99.90
16273;DHT22;8244;50.044;9.006;2023-05-07T22:54:39;16.70;99.90
16273;DHT22;8244;50.044;9.006;2023-05-07T22:59:41;16.60;99.90
16273;DHT22;8244;50.044;9.006;2023-05-07T23:04:42;16.60;99.90
16273;DHT22;8244;50.044;9.006;2023-05-07T23:09:45;16.50;99.90
16273;DHT22;8244;50.044;9.006;2023-05-07T23:14:47;16.50;99.90
16273;DHT22;8244;50.044;9.006;2023-05-07T23:19:48;16.50;99.90
16273;DHT22;8244;50.044;9.006;2023-05-07T23:24:51;16.40;99.90
16273;DHT22;8244;50.044;9.006;2023-05-07T23:29:53;16.40;99.90
16273;DHT22;8244;50.044;9.006;2023-05-07T23:34:55;16.40;99.90
16273;DHT22;8244;50.044;9.006;2023-05-07T23:39:58;16.30;99.90
16273;DHT22;8244;50.044;9.006;2023-05-07T23:44:59;16.30;99.90
16273;DHT22;8244;50.044;9.006;2023-05-07T23:50:01;16.20;99.90
16273;DHT22;8244;50.044;9.006;2023-05-07T23:55:05;16.20;99.90
